Time;durP1;ratioP1;P1;durP2;ratioP2;P2;SDS_P1;SDS_P2;PMS_P1;PMS_P2;Temp;Humidity;BMP_temperature;BMP_pressure;BME280_temperature;BME280_humidity;BME280_pressure;Samples;Min_cycle;Max_cycle;Signal;HPM_P1;HPM_P2
2023/08/20 00:02:23;;;;;;;3.60;3.30;;;;;;;17.70;98.20;102089.56;6252734;22;20088;-78
2023/08/20 00:04:51;;;;;;;7.05;3.63;;;;;;;17.65;97.98;102085.53;6252983;22;20051;-77
2023/08/20 00:07:18;;;;;;;7.35;4.20;;;;;;;17.60;97.97;102100.34;6279182;22;20020;-77
2023/08/20 00:09:45;;;;;;;8.45;4.15;;;;;;;17.54;98.80;102096.78;6252680;22;20047;-77
2023/08/20 00:12:11;;;;;;;6.93;3.78;;;;;;;17.50;98.53;102098.91;6279608;22;20012;-77
2023/08/20 00:14:58;;;;;;;8.27;3.53;;;;;;;17.50;97.92;102103.53;6252049;22;20102;-77
2023/08/20 00:17:28;;;;;;;7.88;3.60;;;;;;;17.42;98.27;102110.44;6279234;22;20091;-77
2023/08/20 00:19:55;;;;;;;5.97;3.35;;;;;;;17.37;97.46;102111.81;6280307;22;20012;-77
2023/08/20 00:22:23;;;;;;;7.97;3.63;;;;;;;17.34;98.26;102110.00;6279441;22;20016;-77
2023/08/20 00:24:54;;;;;;;6.35;3.70;;;;;;;17.32;98.81;102113.16;6252461;22;20047;-77
2023/08/20 00:27:21;;;;;;;5.78;3.72;;;;;;;17.29;98.87;102108.69;6251760;22;20016;-77
2023/08/20 00:29:47;;;;;;;6.53;3.90;;;;;;;17.22;98.70;102097.47;6227510;22;20020;-77
2023/08/20 00:32:15;;;;;;;4.00;3.55;;;;;;;17.22;99.50;102102.88;6253018;22;20031;-77
2023/08/20 00:34:41;;;;;;;5.03;3.63;;;;;;;17.19;100.00;102106.47;6252104;22;20074;-77
2023/08/20 00:37:08;;;;;;;6.55;3.55;;;;;;;17.17;99.69;102115.00;6252710;22;20478;-77
2023/08/20 00:39:34;;;;;;;5.60;3.58;;;;;;;17.13;99.65;102116.38;6251925;22;20067;-77
2023/08/20 00:42:02;;;;;;;7.72;3.30;;;;;;;17.14;98.97;102112.47;6252245;22;20027;-77
2023/08/20 00:44:28;;;;;;;5.80;3.50;;;;;;;17.13;99.64;102117.09;6251930;22;20020;-77
2023/08/20 00:46:56;;;;;;;4.68;3.45;;;;;;;17.17;100.00;102128.47;6253192;22;20396;-77
2023/08/20 00:49:23;;;;;;;7.10;3.38;;;;;;;17.21;100.00;102130.97;6279211;22;20445;-77
2023/08/20 00:51:50;;;;;;;4.25;3.85;;;;;;;17.22;100.00;102138.59;6227326;22;20016;-76
2023/08/20 00:54:17;;;;;;;5.30;3.50;;;;;;;17.24;100.00;102148.91;6279682;22;20020;-76
2023/08/20 00:56:44;;;;;;;5.68;3.63;;;;;;;17.25;100.00;102147.72;6251818;22;20031;-76
2023/08/20 00:59:12;;;;;;;6.68;3.17;;;;;;;17.26;100.00;102146.50;6279835;22;20414;-76
2023/08/20 01:01:38;;;;;;;5.95;3.20;;;;;;;17.26;100.00;102152.63;6252197;22;20261;-76
2023/08/20 01:04:05;;;;;;;4.13;3.72;;;;;;;17.24;100.00;102157.72;6252397;22;20024;-76
2023/08/20 01:06:49;;;;;;;6.40;3.72;;;;;;;17.23;100.00;102152.78;6278951;22;20480;-76
2023/08/20 01:09:26;;;;;;;5.22;3.90;;;;;;;17.20;100.00;102151.00;6251829;22;20016;-76
2023/08/20 01:11:58;;;;;;;10.10;3.67;;;;;;;17.17;100.00;102150.00;6252338;22;20020;-76
2023/08/20 01:14:25;;;;;;;5.32;3.60;;;;;;;17.14;100.00;102150.88;6251639;22;20457;-76
2023/08/20 01:16:52;;;;;;;7.78;3.75;;;;;;;17.10;100.00;102154.94;6279698;22;20027;-76
2023/08/20 01:19:20;;;;;;;5.75;3.63;;;;;;;17.09;100.00;102161.50;6252680;22;20016;-76
2023/08/20 01:22:05;;;;;;;3.65;3.15;;;;;;;17.05;100.00;102163.59;6281009;22;20047;-75
2023/08/20 01:24:55;;;;;;;8.48;3.60;;;;;;;17.04;100.00;102172.88;6251940;22;20091;-76
2023/08/20 01:27:28;;;;;;;7.35;3.58;;;;;;;17.02;100.00;102177.94;6280300;22;20088;-76
2023/08/20 01:29:55;;;;;;;6.53;3.97;;;;;;;16.99;100.00;102184.97;6281164;22;20047;-76
2023/08/20 01:32:24;;;;;;;4.00;3.60;;;;;;;17.00;100.00;102186.47;6279996;22;20012;-76
2023/08/20 01:34:52;;;;;;;5.20;3.92;;;;;;;17.00;100.00;102181.81;6280879;22;20469;-76
2023/08/20 01:37:19;;;;;;;3.35;3.05;;;;;;;17.02;100.00;102186.75;6280276;22;20103;-75
2023/08/20 01:39:48;;;;;;;5.38;3.50;;;;;;;17.02;100.00;102184.06;6280806;22;20036;-76
2023/08/20 01:42:14;;;;;;;8.07;3.63;;;;;;;17.00;100.00;102181.09;6253804;22;20066;-76
2023/08/20 01:44:41;;;;;;;5.32;3.70;;;;;;;17.02;100.00;102175.25;6280116;22;20016;-76
2023/08/20 01:47:08;;;;;;;6.53;3.70;;;;;;;17.00;100.00;102189.91;6280888;22;20016;-76
2023/08/20 01:49:34;;;;;;;4.28;3.88;;;;;;;16.94;100.00;102189.00;6252444;22;20027;-76
2023/08/20 01:52:01;;;;;;;4.30;3.75;;;;;;;16.89;100.00;102180.78;6280879;22;20013;-75
2023/08/20 01:54:28;;;;;;;8.13;3.65;;;;;;;16.86;100.00;102190.50;6279559;22;20059;-75
2023/08/20 01:56:55;;;;;;;3.72;3.38;;;;;;;16.83;100.00;102191.38;6253474;22;20020;-75
2023/08/20 01:59:23;;;;;;;5.65;3.35;;;;;;;16.80;100.00;102192.28;6252875;22;20027;-75
2023/08/20 02:01:50;;;;;;;4.82;3.05;;;;;;;16.76;100.00;102197.06;6253450;22;20023;-75
2023/08/20 02:04:16;;;;;;;3.05;2.85;;;;;;;16.75;100.00;102198.28;6253393;22;20027;-75
2023/08/20 02:06:43;;;;;;;5.72;2.88;;;;;;;16.76;100.00;102194.38;6253443;22;20021;-75
2023/08/20 02:09:12;;;;;;;4.95;2.90;;;;;;;16.72;100.00;102195.72;6252826;22;20023;-75
2023/08/20 02:11:40;;;;;;;6.05;2.97;;;;;;;16.70;100.00;102196.16;6252447;22;20020;-75
2023/08/20 02:14:06;;;;;;;6.60;3.10;;;;;;;16.71;100.00;102196.91;6280711;22;20506;-76
2023/08/20 02:16:33;;;;;;;3.55;3.20;;;;;;;16.69;100.00;102196.63;6252497;22;20024;-75
2023/08/20 02:19:01;;;;;;;7.45;2.70;;;;;;;16.66;100.00;102193.63;6253253;22;20083;-75
2023/08/20 02:21:29;;;;;;;3.83;3.00;;;;;;;16.63;100.00;102194.50;6279661;22;20426;-75
2023/08/20 02:23:56;;;;;;;4.43;2.75;;;;;;;16.60;100.00;102187.31;6281047;22;20087;-75
2023/08/20 02:26:23;;;;;;;2.97;2.67;;;;;;;16.57;100.00;102196.25;6280244;22;20024;-75
2023/08/20 02:28:49;;;;;;;3.45;3.03;;;;;;;16.53;100.00;102192.22;6281109;22;20019;-75
2023/08/20 02:31:16;;;;;;;4.95;2.88;;;;;;;16.47;100.00;102183.25;6280376;22;20071;-75
2023/08/20 02:33:47;;;;;;;3.50;2.93;;;;;;;16.45;100.00;102182.94;6280591;22;20405;-76
2023/08/20 02:36:13;;;;;;;2.75;2.55;;;;;;;16.41;100.00;102176.97;6280362;22;20553;-76
2023/08/20 02:38:40;;;;;;;3.13;2.83;;;;;;;16.37;100.00;102162.94;6280011;22;20044;-75
2023/08/20 02:41:07;;;;;;;3.97;2.80;;;;;;;16.37;100.00;102168.31;6280814;22;20342;-76
2023/08/20 02:43:34;;;;;;;3.00;2.80;;;;;;;16.34;100.00;102162.63;6279945;22;20020;-76
2023/08/20 02:46:00;;;;;;;5.82;3.30;;;;;;;16.31;100.00;102158.16;6280981;22;20054;-76
2023/08/20 02:48:28;;;;;;;6.95;3.13;;;;;;;16.28;100.00;102156.34;6252536;22;20074;-76
2023/08/20 02:50:54;;;;;;;4.07;2.85;;;;;;;16.23;100.00;102161.56;6280448;22;20079;-75
2023/08/20 02:53:21;;;;;;;3.17;2.88;;;;;;;16.21;100.00;102159.31;6252463;22;20079;-76
2023/08/20 02:55:48;;;;;;;4.40;3.00;;;;;;;16.17;100.00;102153.34;6252891;22;20043;-76
2023/08/20 02:58:15;;;;;;;4.50;3.13;;;;;;;16.15;100.00;102155.72;6253245;22;20405;-75
2023/08/20 03:00:45;;;;;;;3.72;3.05;;;;;;;16.10;100.00;102155.53;6227262;22;20048;-76
2023/08/20 03:03:12;;;;;;;3.47;3.17;;;;;;;16.04;100.00;102160.00;6252862;22;20098;-76
2023/08/20 03:05:41;;;;;;;4.35;3.17;;;;;;;16.00;100.00;102158.19;6226629;22;20414;-76
2023/08/20 03:08:09;;;;;;;3.50;3.25;;;;;;;15.96;100.00;102162.22;6227734;22;20019;-76
2023/08/20 03:10:35;;;;;;;5.70;3.00;;;;;;;15.92;100.00;102161.63;6280032;22;20102;-76
2023/08/20 03:13:03;;;;;;;4.78;2.90;;;;;;;15.87;100.00;102154.13;6280660;22;20031;-76
2023/08/20 03:15:30;;;;;;;3.03;2.80;;;;;;;15.86;100.00;102166.06;6279946;22;20016;-76
2023/08/20 03:17:57;;;;;;;3.08;2.78;;;;;;;15.83;100.00;102165.00;6280569;22;20018;-76
2023/08/20 03:20:23;;;;;;;3.90;2.92;;;;;;;15.82;100.00;102168.88;6251500;22;20023;-76
2023/08/20 03:22:50;;;;;;;5.55;2.83;;;;;;;15.78;100.00;102167.50;6253346;22;20044;-76
2023/08/20 03:25:16;;;;;;;3.03;2.67;;;;;;;15.74;100.00;102156.91;6280323;22;20069;-76
2023/08/20 03:27:44;;;;;;;7.03;2.85;;;;;;;15.74;100.00;102158.84;6252962;22;20020;-76
2023/08/20 03:30:11;;;;;;;4.13;2.92;;;;;;;15.72;100.00;102171.97;6227699;22;20020;-75
2023/08/20 03:32:38;;;;;;;3.10;2.90;;;;;;;15.66;100.00;102167.16;6252048;22;20013;-76
2023/08/20 03:35:07;;;;;;;3.78;3.38;;;;;;;15.65;100.00;102164.91;6252441;22;20071;-76
2023/08/20 03:37:34;;;;;;;4.70;3.65;;;;;;;15.63;100.00;102173.41;6252335;22;20016;-76
2023/08/20 03:40:02;;;;;;;3.53;3.22;;;;;;;15.61;100.00;102181.16;6252929;22;20456;-76
2023/08/20 03:42:28;;;;;;;6.07;3.50;;;;;;;15.61;100.00;102189.19;6252148;22;20437;-76
2023/08/20 03:44:55;;;;;;;3.95;3.58;;;;;;;15.63;100.00;102194.13;6280368;22;20078;-76
2023/08/20 03:47:21;;;;;;;4.55;3.85;;;;;;;15.63;100.00;102188.75;6279647;22;20087;-76
2023/08/20 03:49:48;;;;;;;4.00;3.30;;;;;;;15.64;100.00;102179.53;6279813;22;20409;-75
2023/08/20 03:52:15;;;;;;;4.78;3.60;;;;;;;15.63;100.00;102186.06;6252970;22;20440;-76
2023/08/20 03:54:42;;;;;;;5.57;3.42;;;;;;;15.63;100.00;102196.81;6279164;22;20409;-76
2023/08/20 03:57:08;;;;;;;5.10;3.70;;;;;;;15.61;100.00;102202.63;6280640;22;20447;-76
2023/08/20 03:59:35;;;;;;;6.68;3.80;;;;;;;15.61;100.00;102207.25;6252434;22;20096;-76
2023/08/20 04:02:02;;;;;;;5.95;3.55;;;;;;;15.59;100.00;102199.66;6280446;22;20012;-75
2023/08/20 04:04:29;;;;;;;3.50;3.20;;;;;;;15.58;100.00;102203.53;6279070;22;20024;-76
2023/08/20 04:06:55;;;;;;;6.00;3.10;;;;;;;15.55;100.00;102198.25;6280294;22;20012;-75
2023/08/20 04:09:22;;;;;;;5.47;2.80;;;;;;;15.51;100.00;102205.69;6279856;22;20019;-76
2023/08/20 04:11:49;;;;;;;5.40;3.10;;;;;;;15.47;100.00;102203.13;6280426;22;20468;-76
2023/08/20 04:14:15;;;;;;;3.97;3.00;;;;;;;15.44;100.00;102208.63;6280427;22;20091;-76
2023/08/20 04:16:42;;;;;;;4.22;2.60;;;;;;;15.44;100.00;102212.03;6279909;22;20012;-75
2023/08/20 04:19:09;;;;;;;3.53;2.50;;;;;;;15.40;100.00;102205.31;6227059;22;20087;-76
2023/08/20 04:21:36;;;;;;;2.53;2.33;;;;;;;15.37;100.00;102211.53;6252287;22;20022;-75
2023/08/20 04:24:03;;;;;;;3.05;2.50;;;;;;;15.34;100.00;102213.16;6280204;22;20048;-75
2023/08/20 04:26:29;;;;;;;4.78;2.47;;;;;;;15.31;100.00;102216.72;6279366;22;20012;-76
2023/08/20 04:28:56;;;;;;;5.65;2.83;;;;;;;15.29;100.00;102219.09;6280297;22;20012;-76
2023/08/20 04:31:22;;;;;;;4.65;2.55;;;;;;;15.28;100.00;102228.31;6251823;22;20450;-76
2023/08/20 04:33:59;;;;;;;3.53;3.13;;;;;;;15.27;100.00;102234.88;6251764;22;20020;-76
2023/08/20 04:36:36;;;;;;;7.35;2.97;;;;;;;15.28;100.00;102231.00;6251604;22;20016;-76
2023/08/20 04:39:04;;;;;;;3.50;3.03;;;;;;;15.28;100.00;102233.69;6252565;22;20103;-77
2023/08/20 04:41:34;;;;;;;4.13;2.92;;;;;;;15.29;100.00;102229.81;6251608;22;20024;-76
2023/08/20 04:44:02;;;;;;;3.22;3.03;;;;;;;15.29;100.00;102230.56;6252235;22;20021;-76
2023/08/20 04:46:28;;;;;;;3.78;3.03;;;;;;;15.31;100.00;102222.09;6278770;22;20031;-76
2023/08/20 04:48:55;;;;;;;4.80;2.70;;;;;;;15.31;100.00;102228.19;6252432;22;20020;-76
2023/08/20 04:51:22;;;;;;;3.47;3.20;;;;;;;15.32;100.00;102231.63;6251686;22;20035;-76
2023/08/20 04:53:49;;;;;;;8.00;3.30;;;;;;;15.32;100.00;102235.06;6253596;22;20463;-76
2023/08/20 04:56:15;;;;;;;3.15;2.83;;;;;;;15.33;100.00;102235.81;6255596;22;20024;-76
2023/08/20 04:58:42;;;;;;;2.88;2.67;;;;;;;15.33;100.00;102236.56;6282845;22;20421;-76
2023/08/20 05:01:09;;;;;;;2.72;2.50;;;;;;;15.34;100.00;102243.44;6255013;22;20023;-76
2023/08/20 05:03:36;;;;;;;3.08;2.78;;;;;;;15.30;100.00;102248.16;6254567;22;20074;-76
2023/08/20 05:06:04;;;;;;;5.03;2.70;;;;;;;15.29;100.00;102246.66;6255585;22;20027;-77
2023/08/20 05:08:31;;;;;;;4.93;2.53;;;;;;;15.29;100.00;102245.91;6254901;22;20434;-76
2023/08/20 05:10:57;;;;;;;2.65;2.50;;;;;;;15.29;100.00;102251.28;6282846;22;20012;-75
2023/08/20 05:13:24;;;;;;;4.88;2.97;;;;;;;15.30;100.00;102252.78;6254875;22;20136;-76
2023/08/20 05:15:50;;;;;;;2.70;2.50;;;;;;;15.31;100.00;102259.63;6254916;22;20451;-76
2023/08/20 05:18:17;;;;;;;4.53;2.97;;;;;;;15.35;100.00;102249.53;6255376;22;20400;-75
2023/08/20 05:20:44;;;;;;;3.28;2.78;;;;;;;15.37;100.00;102257.16;6255637;22;20390;-75
2023/08/20 05:23:10;;;;;;;4.18;2.78;;;;;;;15.37;100.00;102254.47;6229988;22;20450;-75
2023/08/20 05:25:37;;;;;;;5.40;3.22;;;;;;;15.39;100.00;102254.78;6282066;22;20465;-75
2023/08/20 05:28:03;;;;;;;4.43;2.92;;;;;;;15.44;100.00;102256.91;6255290;22;20024;-75
2023/08/20 05:30:32;;;;;;;5.40;2.60;;;;;;;15.79;100.00;102253.00;6229131;22;20020;-75
2023/08/20 05:32:59;;;;;;;3.35;3.03;;;;;;;16.54;100.00;102258.22;6230124;22;20031;-75
2023/08/20 05:35:28;;;;;;;2.97;2.60;;;;;;;16.90;95.85;102258.34;6254317;22;20021;-75
2023/08/20 05:37:55;;;;;;;4.05;2.60;;;;;;;16.74;95.76;102260.56;6255437;22;20047;-79
2023/08/20 05:40:21;;;;;;;3.42;2.65;;;;;;;17.20;94.32;102256.69;6229432;22;20016;-78
2023/08/20 05:42:48;;;;;;;3.35;2.55;;;;;;;17.77;92.10;102258.91;6255455;22;20040;-75
2023/08/20 05:45:17;;;;;;;5.00;2.53;;;;;;;20.05;81.18;102264.66;6254015;22;20083;-76
2023/08/20 05:47:44;;;;;;;3.58;2.92;;;;;;;21.01;74.90;102268.16;6255401;22;20406;-78
2023/08/20 05:50:11;;;;;;;2.67;2.47;;;;;;;22.35;70.38;102269.34;6255283;22;20020;-75
2023/08/20 05:52:37;;;;;;;4.80;3.25;;;;;;;23.39;64.70;102271.41;6281827;22;20027;-76
2023/08/20 05:55:04;;;;;;;5.55;4.10;;;;;;;23.16;65.23;102265.97;6254949;22;20024;-75
2023/08/20 05:57:32;;;;;;;6.68;4.00;;;;;;;23.79;63.58;102260.06;6254714;22;20039;-76
2023/08/20 05:59:59;;;;;;;4.38;4.00;;;;;;;24.33;61.39;102257.03;6282703;22;20012;-78
2023/08/20 06:02:25;;;;;;;12.52;4.78;;;;;;;24.81;59.24;102259.28;6254871;22;20020;-77
2023/08/20 06:04:52;;;;;;;7.55;4.35;;;;;;;25.27;58.68;102264.00;6254024;22;20469;-75
2023/08/20 06:07:19;;;;;;;6.50;3.90;;;;;;;25.56;57.66;102259.09;6280244;22;20066;-78
2023/08/20 06:09:46;;;;;;;11.05;4.30;;;;;;;25.46;57.01;102263.38;6228140;22;20091;-76
2023/08/20 06:12:12;;;;;;;5.47;3.75;;;;;;;25.06;57.42;102248.53;6253571;22;20020;-76
2023/08/20 06:14:39;;;;;;;6.53;3.60;;;;;;;24.98;58.01;102255.78;6280067;22;20016;-75
2023/08/20 06:17:06;;;;;;;9.02;4.00;;;;;;;24.79;58.66;102256.31;6281418;22;20442;-76
2023/08/20 06:19:32;;;;;;;4.65;3.15;;;;;;;24.42;60.52;102256.75;6253316;22;20434;-76
2023/08/20 06:22:00;;;;;;;5.75;3.38;;;;;;;24.26;61.32;102254.81;6281167;22;20621;-76
2023/08/20 06:24:26;;;;;;;5.40;3.30;;;;;;;23.64;63.01;102253.41;6280153;22;20016;-76
2023/08/20 06:26:53;;;;;;;7.15;3.33;;;;;;;23.38;65.09;102256.34;6281102;22;20019;-76
2023/08/20 06:29:21;;;;;;;5.78;3.60;;;;;;;23.14;65.08;102259.53;6279819;22;20016;-76
2023/08/20 06:31:48;;;;;;;10.63;3.47;;;;;;;22.76;67.09;102252.75;6253838;22;20428;-76
2023/08/20 06:34:15;;;;;;;6.45;3.05;;;;;;;22.57;68.00;102250.44;6280842;22;20020;-75
2023/08/20 06:36:42;;;;;;;7.38;3.28;;;;;;;22.41;69.61;102253.06;6253090;22;20027;-75
2023/08/20 06:39:08;;;;;;;6.38;2.90;;;;;;;22.39;69.87;102252.84;6281253;22;20012;-76
2023/08/20 06:41:35;;;;;;;5.03;2.60;;;;;;;22.37;70.26;102258.75;6280118;22;20016;-75
2023/08/20 06:44:02;;;;;;;4.35;2.60;;;;;;;22.38;70.42;102257.50;6280106;22;20012;-75
2023/08/20 06:46:29;;;;;;;6.18;2.95;;;;;;;22.31;70.66;102265.34;6252751;22;20022;-75
2023/08/20 06:48:56;;;;;;;9.60;3.00;;;;;;;22.30;71.69;102267.34;6280562;22;20023;-75
2023/08/20 06:51:22;;;;;;;6.25;2.85;;;;;;;22.13;71.77;102267.22;6252339;22;20026;-75
2023/08/20 06:53:49;;;;;;;7.32;2.35;;;;;;;22.08;72.12;102267.94;6280568;22;20016;-75
2023/08/20 06:56:16;;;;;;;8.90;3.13;;;;;;;22.09;73.44;102269.41;6280205;22;20087;-75
2023/08/20 06:58:43;;;;;;;5.78;2.60;;;;;;;22.01;73.19;102265.66;6279487;22;20024;-75
2023/08/20 07:01:09;;;;;;;11.32;2.53;;;;;;;21.87;73.23;102266.53;6280553;22;20023;-74
2023/08/20 07:03:39;;;;;;;7.03;2.50;;;;;;;21.94;73.77;102266.84;6279542;22;20535;-75
2023/08/20 07:06:06;;;;;;;5.97;2.00;;;;;;;21.86;73.09;102262.31;6280539;22;20047;-75
2023/08/20 07:08:32;;;;;;;8.50;2.33;;;;;;;21.83;73.46;102261.31;6279672;22;20019;-75
2023/08/20 07:10:59;;;;;;;6.22;1.88;;;;;;;21.93;74.14;102251.06;6253504;22;20146;-76
2023/08/20 07:13:25;;;;;;;8.70;2.50;;;;;;;21.94;73.77;102253.28;6279219;22;20489;-76
2023/08/20 07:15:52;;;;;;;5.70;1.95;;;;;;;21.88;73.83;102259.88;6280905;22;20482;-75
2023/08/20 07:18:19;;;;;;;5.80;2.03;;;;;;;21.99;73.63;102262.69;6279767;22;20025;-75
2023/08/20 07:20:46;;;;;;;10.52;2.30;;;;;;;22.07;73.33;102261.00;6280792;22;20020;-75
2023/08/20 07:23:12;;;;;;;6.93;2.03;;;;;;;22.10;72.83;102267.44;6280811;22;20016;-75
2023/08/20 07:25:41;;;;;;;5.70;1.85;;;;;;;22.06;72.65;102272.34;6279566;22;20024;-75
2023/08/20 07:28:08;;;;;;;5.78;2.28;;;;;;;22.22;73.32;102277.88;6279453;22;20458;-75
2023/08/20 07:30:35;;;;;;;10.07;2.40;;;;;;;22.34;72.38;102278.69;6253000;22;20039;-75
2023/08/20 07:33:03;;;;;;;6.05;1.88;;;;;;;22.28;73.05;102281.38;6279285;22;20099;-75
2023/08/20 07:35:31;;;;;;;10.13;2.60;;;;;;;22.57;72.93;102277.56;6279913;22;20016;-75
2023/08/20 07:37:58;;;;;;;4.65;2.08;;;;;;;22.65;70.72;102275.16;6280468;22;20426;-75
2023/08/20 07:40:25;;;;;;;4.88;2.03;;;;;;;22.73;71.29;102272.72;6279631;22;20023;-75
2023/08/20 07:42:51;;;;;;;4.05;1.90;;;;;;;22.87;71.04;102280.66;6279802;22;20091;-75
2023/08/20 07:45:18;;;;;;;6.72;1.90;;;;;;;22.90;69.78;102273.53;6280403;22;20027;-76
2023/08/20 07:47:44;;;;;;;4.55;1.80;;;;;;;22.97;69.67;102280.47;6280502;22;20087;-76
2023/08/20 07:50:11;;;;;;;4.80;2.30;;;;;;;23.01;68.63;102287.16;6280456;22;20047;-76
2023/08/20 07:52:38;;;;;;;8.15;1.98;;;;;;;23.05;68.53;102284.94;6252591;22;21160;-75
2023/08/20 07:55:05;;;;;;;9.00;2.35;;;;;;;23.27;69.00;102284.97;6279268;22;20091;-76
2023/08/20 07:57:31;;;;;;;5.55;1.75;;;;;;;23.37;67.58;102284.75;6279459;22;20442;-76
2023/08/20 07:59:58;;;;;;;7.15;1.80;;;;;;;23.45;67.80;102293.91;6280461;22;20028;-75
2023/08/20 08:02:25;;;;;;;6.45;1.75;;;;;;;23.50;67.11;102293.16;6279659;22;20111;-75
2023/08/20 08:04:52;;;;;;;6.93;1.90;;;;;;;23.65;67.76;102293.69;6280057;22;20070;-75
2023/08/20 08:07:18;;;;;;;5.57;1.70;;;;;;;23.68;64.71;102289.22;6279713;22;20485;-75
2023/08/20 08:09:45;;;;;;;4.60;1.48;;;;;;;23.74;65.07;102287.25;6279967;22;20027;-76
2023/08/20 08:12:12;;;;;;;5.10;1.50;;;;;;;23.80;65.15;102293.44;6279987;22;20047;-75
2023/08/20 08:14:38;;;;;;;5.32;2.30;;;;;;;23.96;64.68;102294.69;6252055;22;20016;-76
2023/08/20 08:17:05;;;;;;;6.43;1.80;;;;;;;24.11;64.38;102300.56;6280114;22;20023;-76
2023/08/20 08:19:31;;;;;;;2.67;1.58;;;;;;;23.92;61.72;102303.09;6278982;22;20091;-76
2023/08/20 08:21:58;;;;;;;4.20;1.52;;;;;;;24.00;62.06;102304.03;6253110;22;20016;-75
2023/08/20 08:24:25;;;;;;;2.25;1.33;;;;;;;24.13;61.47;102301.56;6278827;22;20013;-77
2023/08/20 08:26:51;;;;;;;4.18;1.58;;;;;;;24.27;61.26;102311.47;6280143;22;20016;-82
2023/08/20 08:29:18;;;;;;;3.67;1.50;;;;;;;24.35;61.67;102303.53;6252240;22;20048;-79
2023/08/20 08:31:44;;;;;;;4.00;1.70;;;;;;;24.46;60.77;102319.06;6253193;22;20016;-78
2023/08/20 08:34:11;;;;;;;7.05;1.60;;;;;;;24.59;61.32;102317.31;6227309;22;20026;-76
2023/08/20 08:36:38;;;;;;;4.63;1.90;;;;;;;24.67;59.75;102319.53;6279627;22;20020;-76
2023/08/20 08:39:07;;;;;;;5.80;1.80;;;;;;;24.66;60.03;102318.78;6279488;22;20712;-76
2023/08/20 08:41:38;;;;;;;6.07;1.83;;;;;;;24.75;61.47;102312.31;6279637;22;20012;-76
2023/08/20 08:44:08;;;;;;;5.20;1.52;;;;;;;24.90;59.32;102323.63;6280387;22;20039;-76
2023/08/20 08:46:38;;;;;;;5.95;1.52;;;;;;;25.07;58.82;102318.13;6279158;22;20751;-76
2023/08/20 08:49:05;;;;;;;8.98;2.13;;;;;;;25.18;57.83;102323.53;6280115;22;20075;-76
2023/08/20 08:51:33;;;;;;;3.03;1.75;;;;;;;25.23;58.91;102317.28;6251872;22;20016;-76
2023/08/20 08:54:01;;;;;;;3.20;1.30;;;;;;;25.41;57.54;102319.41;6279332;22;20473;-77
2023/08/20 08:56:28;;;;;;;2.47;1.17;;;;;;;25.58;57.13;102320.03;6276607;22;20512;-76
2023/08/20 08:58:55;;;;;;;4.28;1.33;;;;;;;25.81;56.62;102322.59;6277206;22;20016;-77
2023/08/20 09:01:21;;;;;;;3.22;1.20;;;;;;;25.56;53.94;102319.06;6276936;22;20012;-80
2023/08/20 09:03:49;;;;;;;5.78;1.30;;;;;;;25.27;54.63;102318.50;6250323;22;20459;-81
2023/08/20 09:06:15;;;;;;;4.88;2.65;;;;;;;25.49;55.59;102319.59;6278281;22;20051;-79
2023/08/20 09:08:42;;;;;;;3.42;1.35;;;;;;;25.69;55.18;102318.47;6277479;22;20055;-76
2023/08/20 09:11:09;;;;;;;3.35;1.40;;;;;;;25.66;54.63;102317.50;6279034;22;20050;-76
2023/08/20 09:13:43;;;;;;;4.22;1.20;;;;;;;25.99;55.64;102319.22;6278658;22;20529;-76
2023/08/20 09:16:11;;;;;;;2.65;1.30;;;;;;;26.07;53.54;102320.13;6279554;22;20018;-76
2023/08/20 09:18:40;;;;;;;4.63;1.40;;;;;;;26.15;54.48;102314.84;6278709;22;20201;-77
2023/08/20 09:21:08;;;;;;;2.45;1.35;;;;;;;26.23;53.29;102313.03;6252268;22;20464;-77
2023/08/20 09:23:36;;;;;;;4.43;1.42;;;;;;;26.19;52.69;102316.03;6251151;22;20020;-76
2023/08/20 09:26:04;;;;;;;5.28;1.50;;;;;;;26.20;53.20;102314.78;6279334;22;20016;-76
2023/08/20 09:28:41;;;;;;;2.28;1.42;;;;;;;26.33;52.42;102321.66;6251057;22;20469;-76
2023/08/20 09:31:08;;;;;;;3.30;1.38;;;;;;;26.28;51.56;102325.88;6252653;22;20019;-77
2023/08/20 09:33:48;;;;;;;5.00;1.40;;;;;;;26.47;52.42;102329.41;6278916;22;20360;-77
2023/08/20 09:36:15;;;;;;;1.50;1.00;;;;;;;26.47;51.13;102323.94;6252342;22;20438;-77
2023/08/20 09:38:41;;;;;;;4.93;1.20;;;;;;;26.40;51.56;102321.03;6277956;22;20020;-77
2023/08/20 09:41:08;;;;;;;2.03;1.10;;;;;;;26.56;51.51;102320.88;6280585;22;20047;-79
2023/08/20 09:43:38;;;;;;;3.08;1.10;;;;;;;26.74;50.90;102318.69;6280290;22;20020;-78
2023/08/20 09:46:05;;;;;;;4.95;1.15;;;;;;;26.80;50.29;102317.34;6280320;22;20336;-78
2023/08/20 09:48:38;;;;;;;2.70;1.10;;;;;;;26.91;52.00;102330.84;6279930;22;20478;-74
2023/08/20 09:51:10;;;;;;;4.30;1.30;;;;;;;27.04;49.31;102322.03;6279982;22;20012;-79
2023/08/20 09:53:42;;;;;;;3.20;1.38;;;;;;;27.19;50.88;102327.78;6280143;22;20480;-79
2023/08/20 09:56:10;;;;;;;;;;;;;;;27.44;52.21;102333.13;6281153;22;20528;-79
2023/08/20 09:58:38;;;;;;;2.35;1.08;;;;;;;27.27;49.32;102321.72;6279923;22;19995;-79
2023/08/20 10:01:06;;;;;;;3.80;1.30;;;;;;;27.34;49.24;102324.56;6280818;22;20016;-79
2023/08/20 10:03:33;;;;;;;2.78;1.20;;;;;;;27.54;49.52;102326.78;6280326;22;20717;-79
2023/08/20 10:06:02;;;;;;;2.03;0.90;;;;;;;27.49;47.43;102327.59;6280403;22;20026;-79
2023/08/20 10:08:29;;;;;;;3.45;1.13;;;;;;;27.50;48.18;102329.06;6252672;22;20458;-79
2023/08/20 10:10:55;;;;;;;3.00;1.23;;;;;;;27.42;46.79;102325.47;6280996;22;20016;-79
2023/08/20 10:13:22;;;;;;;1.83;1.30;;;;;;;27.50;48.84;102329.06;6280412;22;20012;-78
2023/08/20 10:15:50;;;;;;;3.22;1.33;;;;;;;27.51;47.50;102330.53;6281072;22;20023;-79
2023/08/20 10:18:19;;;;;;;3.05;1.20;;;;;;;27.53;46.98;102333.50;6280589;22;20360;-82
2023/08/20 10:20:46;;;;;;;2.08;1.13;;;;;;;27.62;48.43;102337.84;6252366;22;20035;-79
2023/08/20 10:23:13;;;;;;;1.88;1.30;;;;;;;27.74;45.84;102330.19;6253294;22;20464;-77
2023/08/20 10:25:46;;;;;;;3.42;1.05;;;;;;;27.78;47.66;102325.91;6252981;22;20051;-77
2023/08/20 10:28:24;;;;;;;3.92;1.40;;;;;;;27.82;47.66;102322.84;6253422;22;20024;-77
2023/08/20 10:31:09;;;;;;;2.20;1.00;;;;;;;28.06;46.64;102333.63;6280758;22;20016;-79
2023/08/20 10:33:38;;;;;;;2.05;1.08;;;;;;;28.10;45.35;102325.81;6252679;22;20339;-77
2023/08/20 10:36:15;;;;;;;1.42;1.10;;;;;;;27.94;43.14;102332.34;6253197;22;20091;-78
2023/08/20 10:38:45;;;;;;;5.95;1.13;;;;;;;27.78;44.61;102330.63;6280101;22;20017;-78
2023/08/20 10:41:12;;;;;;;2.83;1.15;;;;;;;27.83;43.87;102318.84;6280781;22;20039;-79
2023/08/20 10:43:40;;;;;;;1.98;1.05;;;;;;;28.06;43.92;102330.13;6280055;22;20016;-77
2023/08/20 10:46:07;;;;;;;3.40;1.40;;;;;;;27.95;44.69;102316.69;6253719;22;20137;-86
2023/08/20 10:48:40;;;;;;;3.00;1.35;;;;;;;27.59;45.47;102330.69;6281003;22;20020;-83
2023/08/20 10:51:14;;;;;;;;;;;;;;;27.94;46.59;102329.63;6279830;22;20016;-81
2023/08/20 10:53:43;;;;;;;7.13;1.10;;;;;;;28.13;45.39;102327.53;6279804;22;20006;-80
2023/08/20 10:56:13;;;;;;;2.10;1.10;;;;;;;28.38;43.55;102327.34;6280152;22;20028;-81
2023/08/20 10:58:47;;;;;;;3.77;1.20;;;;;;;28.48;43.19;102329.13;6279811;22;20039;-81
2023/08/20 11:01:22;;;;;;;2.55;1.23;;;;;;;28.73;44.35;102324.16;6280876;22;20013;-80
2023/08/20 11:03:50;;;;;;;2.45;1.17;;;;;;;28.75;43.54;102318.13;6253495;22;20469;-81
2023/08/20 11:06:18;;;;;;;1.45;1.08;;;;;;;28.68;42.34;102324.25;6280681;22;20027;-80
2023/08/20 11:08:45;;;;;;;1.42;1.20;;;;;;;28.37;43.94;102325.88;6280636;22;20498;-81
2023/08/20 11:11:12;;;;;;;1.55;1.10;;;;;;;28.41;43.15;102327.00;6280445;22;20018;-82
2023/08/20 11:13:39;;;;;;;3.40;1.40;;;;;;;28.37;41.90;102323.13;6280006;22;20020;-80
2023/08/20 11:16:06;;;;;;;2.28;1.35;;;;;;;28.67;42.60;102328.25;6252868;22;20039;-79
2023/08/20 11:18:34;;;;;;;2.80;1.08;;;;;;;28.74;42.42;102333.84;6278659;22;20434;-80
2023/08/20 11:21:01;;;;;;;3.05;1.15;;;;;;;28.68;39.74;102330.47;6281182;22;20013;-81
2023/08/20 11:23:29;;;;;;;2.25;1.33;;;;;;;28.36;41.70;102327.13;6279326;22;20012;-81
2023/08/20 11:25:57;;;;;;;3.25;1.50;;;;;;;28.02;42.58;102329.72;6252814;22;20027;-81